sensor_id;sensor_type;location;lat;lon;timestamp;temperature;humidity
46037;DHT22;31769;49.304;8.428;2024-03-07T00:00:56;8.30;99.90
46037;DHT22;31769;49.304;8.428;2024-03-07T00:03:57;8.20;99.90
46037;DHT22;31769;49.304;8.428;2024-03-07T00:06:58;8.20;99.90
46037;DHT22;31769;49.304;8.428;2024-03-07T00:09:58;8.30;99.90
46037;DHT22;31769;49.304;8.428;2024-03-07T00:12:59;8.30;99.90
46037;DHT22;31769;49.304;8.428;2024-03-07T00:16:01;8.30;99.90
46037;DHT22;31769;49.304;8.428;2024-03-07T00:19:02;8.30;99.90
46037;DHT22;31769;49.304;8.428;2024-03-07T00:22:02;8.30;99.90
46037;DHT22;31769;49.304;8.428;2024-03-07T00:25:04;8.80;99.90
46037;DHT22;31769;49.304;8.428;2024-03-07T00:28:05;8.20;99.90
46037;DHT22;31769;49.304;8.428;2024-03-07T00:31:07;8.10;99.90
46037;DHT22;31769;49.304;8.428;2024-03-07T00:34:07;8.00;99.90
46037;DHT22;31769;49.304;8.428;2024-03-07T00:37:08;8.10;99.90
46037;DHT22;31769;49.304;8.428;2024-03-07T00:40:09;8.10;99.90
46037;DHT22;31769;49.304;8.428;2024-03-07T00:43:10;8.20;99.90
46037;DHT22;31769;49.304;8.428;2024-03-07T00:46:11;8.20;99.90
46037;DHT22;31769;49.304;8.428;2024-03-07T00:49:12;8.20;99.90
46037;DHT22;31769;49.304;8.428;2024-03-07T00:52:15;8.20;99.90
46037;DHT22;31769;49.304;8.428;2024-03-07T00:55:16;8.20;99.90
46037;DHT22;31769;49.304;8.428;2024-03-07T00:58:17;8.70;99.90
46037;DHT22;31769;49.304;8.428;2024-03-07T01:01:17;8.20;99.90
46037;DHT22;31769;49.304;8.428;2024-03-07T01:04:20;8.20;99.90
46037;DHT22;31769;49.304;8.428;2024-03-07T01:07:20;8.20;99.90
46037;DHT22;31769;49.304;8.428;2024-03-07T01:10:21;8.20;99.90
46037;DHT22;31769;49.304;8.428;2024-03-07T01:13:22;8.10;99.90
46037;DHT22;31769;49.304;8.428;2024-03-07T01:16:24;8.40;99.90
46037;DHT22;31769;49.304;8.428;2024-03-07T01:19:26;8.10;99.90
46037;DHT22;31769;49.304;8.428;2024-03-07T01:22:26;8.20;99.90
46037;DHT22;31769;49.304;8.428;2024-03-07T01:25:27;8.10;99.90
46037;DHT22;31769;49.304;8.428;2024-03-07T01:28:28;8.30;99.90
46037;DHT22;31769;49.304;8.428;2024-03-07T01:31:31;8.20;99.90
46037;DHT22;31769;49.304;8.428;2024-03-07T01:34:33;8.20;99.90
46037;DHT22;31769;49.304;8.428;2024-03-07T01:37:34;8.10;99.90
46037;DHT22;31769;49.304;8.428;2024-03-07T01:40:34;8.10;99.90
46037;DHT22;31769;49.304;8.428;2024-03-07T01:43:35;8.10;99.90
46037;DHT22;31769;49.304;8.428;2024-03-07T01:46:36;8.00;99.90
46037;DHT22;31769;49.304;8.428;2024-03-07T01:49:37;8.00;99.90
46037;DHT22;31769;49.304;8.428;2024-03-07T01:52:40;8.00;99.90
46037;DHT22;31769;49.304;8.428;2024-03-07T01:55:41;8.00;99.90
46037;DHT22;31769;49.304;8.428;2024-03-07T01:58:47;7.90;99.90
46037;DHT22;31769;49.304;8.428;2024-03-07T02:01:48;7.90;99.90
46037;DHT22;31769;49.304;8.428;2024-03-07T02:04:49;7.90;99.90
46037;DHT22;31769;49.304;8.428;2024-03-07T02:07:52;7.80;99.90
46037;DHT22;31769;49.304;8.428;2024-03-07T02:10:53;7.90;99.90
46037;DHT22;31769;49.304;8.428;2024-03-07T02:13:54;7.90;99.90
46037;DHT22;31769;49.304;8.428;2024-03-07T02:16:55;7.80;99.90
46037;DHT22;31769;49.304;8.428;2024-03-07T02:19:56;7.80;99.90
46037;DHT22;31769;49.304;8.428;2024-03-07T02:22:58;7.80;99.90
46037;DHT22;31769;49.304;8.428;2024-03-07T02:25:59;7.70;99.90
46037;DHT22;31769;49.304;8.428;2024-03-07T02:28:59;8.10;99.90
46037;DHT22;31769;49.304;8.428;2024-03-07T02:32:00;7.70;99.90
46037;DHT22;31769;49.304;8.428;2024-03-07T02:35:01;7.70;99.90
46037;DHT22;31769;49.304;8.428;2024-03-07T02:38:03;8.50;99.90
46037;DHT22;31769;49.304;8.428;2024-03-07T02:41:03;7.70;99.90
46037;DHT22;31769;49.304;8.428;2024-03-07T02:44:04;7.90;99.90
46037;DHT22;31769;49.304;8.428;2024-03-07T02:47:05;7.80;99.90
46037;DHT22;31769;49.304;8.428;2024-03-07T02:50:08;7.70;99.90
46037;DHT22;31769;49.304;8.428;2024-03-07T02:53:12;7.70;99.90
46037;DHT22;31769;49.304;8.428;2024-03-07T02:56:13;7.60;99.90
46037;DHT22;31769;49.304;8.428;2024-03-07T02:59:14;7.60;99.90
46037;DHT22;31769;49.304;8.428;2024-03-07T03:02:14;7.60;99.90
46037;DHT22;31769;49.304;8.428;2024-03-07T03:05:15;7.60;99.90
46037;DHT22;31769;49.304;8.428;2024-03-07T03:08:16;7.40;99.90
46037;DHT22;31769;49.304;8.428;2024-03-07T03:11:18;7.40;99.90
46037;DHT22;31769;49.304;8.428;2024-03-07T03:14:18;7.30;99.90
46037;DHT22;31769;49.304;8.428;2024-03-07T03:17:19;7.30;99.90
46037;DHT22;31769;49.304;8.428;2024-03-07T03:20:20;7.70;99.90
46037;DHT22;31769;49.304;8.428;2024-03-07T03:23:33;7.30;99.90
46037;DHT22;31769;49.304;8.428;2024-03-07T03:26:35;7.30;99.90
46037;DHT22;31769;49.304;8.428;2024-03-07T03:29:36;7.30;99.90
46037;DHT22;31769;49.304;8.428;2024-03-07T03:32:36;7.30;99.90
46037;DHT22;31769;49.304;8.428;2024-03-07T03:35:37;7.30;99.90
46037;DHT22;31769;49.304;8.428;2024-03-07T03:38:38;7.20;99.90
46037;DHT22;31769;49.304;8.428;2024-03-07T03:41:38;7.20;99.90
46037;DHT22;31769;49.304;8.428;2024-03-07T03:44:39;7.10;99.90
46037;DHT22;31769;49.304;8.428;2024-03-07T03:47:40;7.00;99.90
46037;DHT22;31769;49.304;8.428;2024-03-07T03:50:44;6.90;99.90
46037;DHT22;31769;49.304;8.428;2024-03-07T03:53:46;6.80;99.90
46037;DHT22;31769;49.304;8.428;2024-03-07T03:56:47;7.10;99.90
46037;DHT22;31769;49.304;8.428;2024-03-07T03:59:48;6.70;99.90
46037;DHT22;31769;49.304;8.428;2024-03-07T04:02:49;6.60;99.90
46037;DHT22;31769;49.304;8.428;2024-03-07T04:05:49;7.10;99.90
46037;DHT22;31769;49.304;8.428;2024-03-07T04:08:50;6.50;99.90
46037;DHT22;31769;49.304;8.428;2024-03-07T04:11:52;6.50;99.90
46037;DHT22;31769;49.304;8.428;2024-03-07T04:14:53;6.40;99.90
46037;DHT22;31769;49.304;8.428;2024-03-07T04:17:57;6.40;99.90
46037;DHT22;31769;49.304;8.428;2024-03-07T04:20:57;6.30;99.90
46037;DHT22;31769;49.304;8.428;2024-03-07T04:23:58;6.30;99.90
46037;DHT22;31769;49.304;8.428;2024-03-07T04:26:59;6.30;99.90
46037;DHT22;31769;49.304;8.428;2024-03-07T04:30:00;6.30;99.90
46037;DHT22;31769;49.304;8.428;2024-03-07T04:33:04;6.30;99.90
46037;DHT22;31769;49.304;8.428;2024-03-07T04:36:06;6.20;99.90
46037;DHT22;31769;49.304;8.428;2024-03-07T04:39:07;6.20;99.90
46037;DHT22;31769;49.304;8.428;2024-03-07T04:42:15;6.10;99.90
46037;DHT22;31769;49.304;8.428;2024-03-07T04:45:16;6.10;99.90
46037;DHT22;31769;49.304;8.428;2024-03-07T04:48:17;6.10;99.90
46037;DHT22;31769;49.304;8.428;2024-03-07T04:51:18;6.00;99.90
46037;DHT22;31769;49.304;8.428;2024-03-07T04:54:20;6.00;99.90
46037;DHT22;31769;49.304;8.428;2024-03-07T04:57:21;5.90;99.90
46037;DHT22;31769;49.304;8.428;2024-03-07T05:00:21;5.90;99.90
46037;DHT22;31769;49.304;8.428;2024-03-07T05:03:24;5.90;99.90
46037;DHT22;31769;49.304;8.428;2024-03-07T05:06:24;5.80;99.90
46037;DHT22;31769;49.304;8.428;2024-03-07T05:09:25;5.80;99.90
46037;DHT22;31769;49.304;8.428;2024-03-07T05:12:26;5.80;99.90
46037;DHT22;31769;49.304;8.428;2024-03-07T05:15:26;5.70;99.90
46037;DHT22;31769;49.304;8.428;2024-03-07T05:18:27;5.70;99.90
46037;DHT22;31769;49.304;8.428;2024-03-07T05:21:28;5.70;99.90
46037;DHT22;31769;49.304;8.428;2024-03-07T05:24:39;5.70;99.90
46037;DHT22;31769;49.304;8.428;2024-03-07T05:27:40;5.70;99.90
46037;DHT22;31769;49.304;8.428;2024-03-07T05:30:40;5.60;99.90
46037;DHT22;31769;49.304;8.428;2024-03-07T05:33:41;5.70;99.90
46037;DHT22;31769;49.304;8.428;2024-03-07T05:36:42;6.30;99.90
46037;DHT22;31769;49.304;8.428;2024-03-07T05:39:47;5.60;99.90
46037;DHT22;31769;49.304;8.428;2024-03-07T05:42:47;5.50;99.90
46037;DHT22;31769;49.304;8.428;2024-03-07T05:45:48;5.50;99.90
46037;DHT22;31769;49.304;8.428;2024-03-07T05:48:49;5.50;99.90
46037;DHT22;31769;49.304;8.428;2024-03-07T05:51:56;5.50;99.90
46037;DHT22;31769;49.304;8.428;2024-03-07T05:54:58;5.50;99.90
46037;DHT22;31769;49.304;8.428;2024-03-07T05:57:59;5.50;99.90
46037;DHT22;31769;49.304;8.428;2024-03-07T06:00:59;5.40;99.90
46037;DHT22;31769;49.304;8.428;2024-03-07T06:04:01;5.50;99.90
46037;DHT22;31769;49.304;8.428;2024-03-07T06:07:02;5.40;99.90
46037;DHT22;31769;49.304;8.428;2024-03-07T06:10:04;5.40;99.90
46037;DHT22;31769;49.304;8.428;2024-03-07T06:13:06;5.50;99.90
46037;DHT22;31769;49.304;8.428;2024-03-07T06:16:07;5.40;99.90
46037;DHT22;31769;49.304;8.428;2024-03-07T06:19:08;5.40;99.90
46037;DHT22;31769;49.304;8.428;2024-03-07T06:22:09;5.40;99.90
46037;DHT22;31769;49.304;8.428;2024-03-07T06:25:10;5.50;99.90
46037;DHT22;31769;49.304;8.428;2024-03-07T06:28:19;5.50;99.90
46037;DHT22;31769;49.304;8.428;2024-03-07T06:31:20;5.50;99.90
46037;DHT22;31769;49.304;8.428;2024-03-07T06:34:21;5.50;99.90
46037;DHT22;31769;49.304;8.428;2024-03-07T06:37:22;5.60;99.90
46037;DHT22;31769;49.304;8.428;2024-03-07T06:40:23;5.60;99.90
46037;DHT22;31769;49.304;8.428;2024-03-07T06:43:24;6.20;99.90
46037;DHT22;31769;49.304;8.428;2024-03-07T06:46:25;5.70;99.90
46037;DHT22;31769;49.304;8.428;2024-03-07T06:49:26;5.70;99.90
46037;DHT22;31769;49.304;8.428;2024-03-07T06:52:28;5.70;99.90
46037;DHT22;31769;49.304;8.428;2024-03-07T06:55:29;5.80;99.90
46037;DHT22;31769;49.304;8.428;2024-03-07T06:58:30;5.80;99.90
46037;DHT22;31769;49.304;8.428;2024-03-07T07:01:31;5.90;99.90
46037;DHT22;31769;49.304;8.428;2024-03-07T07:04:34;5.90;99.90
46037;DHT22;31769;49.304;8.428;2024-03-07T07:07:45;5.90;99.90
46037;DHT22;31769;49.304;8.428;2024-03-07T07:10:46;6.00;99.90
46037;DHT22;31769;49.304;8.428;2024-03-07T07:13:47;6.10;99.90
46037;DHT22;31769;49.304;8.428;2024-03-07T07:16:48;6.10;99.90
46037;DHT22;31769;49.304;8.428;2024-03-07T07:19:49;6.20;99.90
46037;DHT22;31769;49.304;8.428;2024-03-07T07:22:49;6.30;99.90
46037;DHT22;31769;49.304;8.428;2024-03-07T07:25:50;6.40;99.90
46037;DHT22;31769;49.304;8.428;2024-03-07T07:28:51;6.40;99.90
46037;DHT22;31769;49.304;8.428;2024-03-07T07:31:55;6.50;99.90
46037;DHT22;31769;49.304;8.428;2024-03-07T07:34:55;6.80;99.90
46037;DHT22;31769;49.304;8.428;2024-03-07T07:37:56;6.60;99.90
46037;DHT22;31769;49.304;8.428;2024-03-07T07:40:57;6.70;99.90
46037;DHT22;31769;49.304;8.428;2024-03-07T07:43:57;6.80;99.90
46037;DHT22;31769;49.304;8.428;2024-03-07T07:46:58;6.80;99.90
46037;DHT22;31769;49.304;8.428;2024-03-07T07:49:59;6.80;99.90
46037;DHT22;31769;49.304;8.428;2024-03-07T07:53:03;6.90;99.90
46037;DHT22;31769;49.304;8.428;2024-03-07T07:56:08;7.00;99.90
46037;DHT22;31769;49.304;8.428;2024-03-07T07:59:08;7.10;99.90
46037;DHT22;31769;49.304;8.428;2024-03-07T08:02:09;7.20;99.90
46037;DHT22;31769;49.304;8.428;2024-03-07T08:05:11;7.30;99.90
46037;DHT22;31769;49.304;8.428;2024-03-07T08:08:17;7.40;99.90
46037;DHT22;31769;49.304;8.428;2024-03-07T08:11:18;7.50;99.90
46037;DHT22;31769;49.304;8.428;2024-03-07T08:14:19;7.50;99.90
46037;DHT22;31769;49.304;8.428;2024-03-07T08:17:20;7.60;99.90
46037;DHT22;31769;49.304;8.428;2024-03-07T08:20:22;7.70;99.90
46037;DHT22;31769;49.304;8.428;2024-03-07T08:23:22;7.80;99.90
46037;DHT22;31769;49.304;8.428;2024-03-07T08:26:26;7.90;99.90
46037;DHT22;31769;49.304;8.428;2024-03-07T08:29:26;8.00;99.90
46037;DHT22;31769;49.304;8.428;2024-03-07T08:32:28;8.10;99.90
46037;DHT22;31769;49.304;8.428;2024-03-07T08:35:28;8.30;99.90
46037;DHT22;31769;49.304;8.428;2024-03-07T08:38:32;8.30;99.90
46037;DHT22;31769;49.304;8.428;2024-03-07T08:41:36;8.40;99.90
46037;DHT22;31769;49.304;8.428;2024-03-07T08:44:41;8.30;99.90
46037;DHT22;31769;49.304;8.428;2024-03-07T08:47:43;8.40;99.90
46037;DHT22;31769;49.304;8.428;2024-03-07T08:50:44;8.30;99.90
46037;DHT22;31769;49.304;8.428;2024-03-07T08:53:44;8.30;99.90
46037;DHT22;31769;49.304;8.428;2024-03-07T08:56:45;8.30;99.90
46037;DHT22;31769;49.304;8.428;2024-03-07T08:59:46;8.30;99.90
46037;DHT22;31769;49.304;8.428;2024-03-07T09:02:47;8.20;99.90
46037;DHT22;31769;49.304;8.428;2024-03-07T09:05:48;8.30;99.90
46037;DHT22;31769;49.304;8.428;2024-03-07T09:08:48;8.40;99.90
46037;DHT22;31769;49.304;8.428;2024-03-07T09:11:49;8.60;99.90
46037;DHT22;31769;49.304;8.428;2024-03-07T09:14:50;8.50;99.90
46037;DHT22;31769;49.304;8.428;2024-03-07T09:17:51;8.70;99.90
46037;DHT22;31769;49.304;8.428;2024-03-07T09:20:52;8.90;99.90
46037;DHT22;31769;49.304;8.428;2024-03-07T09:23:53;9.00;99.90
46037;DHT22;31769;49.304;8.428;2024-03-07T09:26:54;9.10;99.90
46037;DHT22;31769;49.304;8.428;2024-03-07T09:29:56;9.10;99.90
46037;DHT22;31769;49.304;8.428;2024-03-07T09:32:58;9.10;99.90
46037;DHT22;31769;49.304;8.428;2024-03-07T09:35:58;9.00;99.90
46037;DHT22;31769;49.304;8.428;2024-03-07T09:38:59;9.10;99.90
46037;DHT22;31769;49.304;8.428;2024-03-07T09:42:03;9.00;99.90
46037;DHT22;31769;49.304;8.428;2024-03-07T09:45:10;8.90;99.90
46037;DHT22;31769;49.304;8.428;2024-03-07T09:48:14;8.90;99.90
46037;DHT22;31769;49.304;8.428;2024-03-07T09:51:15;9.00;99.90
46037;DHT22;31769;49.304;8.428;2024-03-07T09:54:17;9.00;99.90
46037;DHT22;31769;49.304;8.428;2024-03-07T09:57:19;9.20;99.90
46037;DHT22;31769;49.304;8.428;2024-03-07T10:00:21;9.40;99.90
46037;DHT22;31769;49.304;8.428;2024-03-07T10:03:29;9.80;99.90
46037;DHT22;31769;49.304;8.428;2024-03-07T10:06:30;10.10;99.90
46037;DHT22;31769;49.304;8.428;2024-03-07T10:09:31;10.20;99.90
46037;DHT22;31769;49.304;8.428;2024-03-07T10:12:36;10.10;99.90
46037;DHT22;31769;49.304;8.428;2024-03-07T10:15:38;10.30;99.90
46037;DHT22;31769;49.304;8.428;2024-03-07T10:18:44;10.80;99.90
46037;DHT22;31769;49.304;8.428;2024-03-07T10:21:46;11.20;99.90
46037;DHT22;31769;49.304;8.428;2024-03-07T10:24:53;11.60;99.90
46037;DHT22;31769;49.304;8.428;2024-03-07T10:27:55;11.80;99.90
46037;DHT22;31769;49.304;8.428;2024-03-07T10:31:00;12.00;99.90
46037;DHT22;31769;49.304;8.428;2024-03-07T10:34:01;12.00;99.90
46037;DHT22;31769;49.304;8.428;2024-03-07T10:37:02;11.80;99.90
46037;DHT22;31769;49.304;8.428;2024-03-07T10:40:04;11.70;99.90
46037;DHT22;31769;49.304;8.428;2024-03-07T10:43:16;11.70;99.90
46037;DHT22;31769;49.304;8.428;2024-03-07T10:46:20;11.80;99.90
46037;DHT22;31769;49.304;8.428;2024-03-07T10:49:26;12.00;99.90
46037;DHT22;31769;49.304;8.428;2024-03-07T10:52:39;12.50;99.90
46037;DHT22;31769;49.304;8.428;2024-03-07T10:59:25;13.20;99.90
46037;DHT22;31769;49.304;8.428;2024-03-07T11:02:42;13.60;99.90
46037;DHT22;31769;49.304;8.428;2024-03-07T11:05:45;13.90;99.40
46037;DHT22;31769;49.304;8.428;2024-03-07T11:08:46;14.30;98.90
46037;DHT22;31769;49.304;8.428;2024-03-07T11:11:47;14.70;97.50
46037;DHT22;31769;49.304;8.428;2024-03-07T11:14:50;14.70;96.10
46037;DHT22;31769;49.304;8.428;2024-03-07T11:17:53;14.70;96.20
46037;DHT22;31769;49.304;8.428;2024-03-07T11:20:54;14.80;95.90
46037;DHT22;31769;49.304;8.428;2024-03-07T11:23:58;14.80;95.60
46037;DHT22;31769;49.304;8.428;2024-03-07T11:27:02;14.80;95.30
46037;DHT22;31769;49.304;8.428;2024-03-07T11:30:06;14.70;94.80
46037;DHT22;31769;49.304;8.428;2024-03-07T11:33:11;14.90;94.90
46037;DHT22;31769;49.304;8.428;2024-03-07T11:36:46;15.20;94.30
46037;DHT22;31769;49.304;8.428;2024-03-07T11:39:48;15.60;94.30
46037;DHT22;31769;49.304;8.428;2024-03-07T11:42:54;16.20;92.40
46037;DHT22;31769;49.304;8.428;2024-03-07T11:46:00;16.70;91.70
46037;DHT22;31769;49.304;8.428;2024-03-07T11:49:01;17.20;91.10
46037;DHT22;31769;49.304;8.428;2024-03-07T11:52:03;17.60;90.80
46037;DHT22;31769;49.304;8.428;2024-03-07T11:55:05;18.00;89.30
46037;DHT22;31769;49.304;8.428;2024-03-07T11:58:06;18.60;88.00
46037;DHT22;31769;49.304;8.428;2024-03-07T12:01:06;19.30;84.80
46037;DHT22;31769;49.304;8.428;2024-03-07T12:04:11;19.40;82.60
46037;DHT22;31769;49.304;8.428;2024-03-07T12:07:16;20.00;79.80
46037;DHT22;31769;49.304;8.428;2024-03-07T12:10:22;20.00;78.10
46037;DHT22;31769;49.304;8.428;2024-03-07T12:13:25;19.70;77.30
46037;DHT22;31769;49.304;8.428;2024-03-07T12:16:27;20.30;76.60
46037;DHT22;31769;49.304;8.428;2024-03-07T12:19:27;20.90;74.80
46037;DHT22;31769;49.304;8.428;2024-03-07T12:22:29;20.70;73.20
46037;DHT22;31769;49.304;8.428;2024-03-07T12:25:30;19.60;73.90
46037;DHT22;31769;49.304;8.428;2024-03-07T12:28:31;18.50;76.10
46037;DHT22;31769;49.304;8.428;2024-03-07T12:31:35;17.80;78.40
46037;DHT22;31769;49.304;8.428;2024-03-07T12:34:37;17.70;79.10
46037;DHT22;31769;49.304;8.428;2024-03-07T12:37:46;17.40;79.40
46037;DHT22;31769;49.304;8.428;2024-03-07T12:41:07;17.30;79.10
46037;DHT22;31769;49.304;8.428;2024-03-07T12:44:13;17.20;80.90
46037;DHT22;31769;49.304;8.428;2024-03-07T12:47:17;17.20;80.70
46037;DHT22;31769;49.304;8.428;2024-03-07T12:50:18;17.60;81.10
46037;DHT22;31769;49.304;8.428;2024-03-07T12:53:21;18.20;79.80
46037;DHT22;31769;49.304;8.428;2024-03-07T12:56:22;18.50;79.70
46037;DHT22;31769;49.304;8.428;2024-03-07T12:59:23;18.90;79.00
46037;DHT22;31769;49.304;8.428;2024-03-07T13:02:24;18.60;78.30
46037;DHT22;31769;49.304;8.428;2024-03-07T13:05:28;18.50;78.30
46037;DHT22;31769;49.304;8.428;2024-03-07T13:08:28;18.20;78.70
46037;DHT22;31769;49.304;8.428;2024-03-07T13:11:32;17.90;79.30
46037;DHT22;31769;49.304;8.428;2024-03-07T13:14:33;17.20;80.90
46037;DHT22;31769;49.304;8.428;2024-03-07T13:17:34;16.70;82.60
46037;DHT22;31769;49.304;8.428;2024-03-07T13:20:35;16.40;83.30
46037;DHT22;31769;49.304;8.428;2024-03-07T13:23:36;16.20;84.60
46037;DHT22;31769;49.304;8.428;2024-03-07T13:26:41;16.00;85.40
46037;DHT22;31769;49.304;8.428;2024-03-07T13:29:43;15.80;86.70
46037;DHT22;31769;49.304;8.428;2024-03-07T13:32:45;16.20;86.80
46037;DHT22;31769;49.304;8.428;2024-03-07T13:35:46;16.10;86.10
46037;DHT22;31769;49.304;8.428;2024-03-07T13:38:49;15.70;87.10
46037;DHT22;31769;49.304;8.428;2024-03-07T13:41:51;15.50;87.90
46037;DHT22;31769;49.304;8.428;2024-03-07T13:44:52;15.10;88.90
46037;DHT22;31769;49.304;8.428;2024-03-07T13:47:54;14.80;90.10
46037;DHT22;31769;49.304;8.428;2024-03-07T13:50:55;14.60;90.70
46037;DHT22;31769;49.304;8.428;2024-03-07T13:53:55;14.30;90.90
46037;DHT22;31769;49.304;8.428;2024-03-07T13:57:38;13.90;91.10
46037;DHT22;31769;49.304;8.428;2024-03-07T14:01:11;13.70;91.90
46037;DHT22;31769;49.304;8.428;2024-03-07T14:32:30;12.70;97.60
46037;DHT22;31769;49.304;8.428;2024-03-07T14:38:53;13.00;97.60
46037;DHT22;31769;49.304;8.428;2024-03-07T14:41:58;13.10;97.60
46037;DHT22;31769;49.304;8.428;2024-03-07T14:44:59;13.10;97.70
46037;DHT22;31769;49.304;8.428;2024-03-07T14:48:00;13.20;97.50
46037;DHT22;31769;49.304;8.428;2024-03-07T14:51:00;13.30;97.40
46037;DHT22;31769;49.304;8.428;2024-03-07T14:54:01;13.30;97.00
46037;DHT22;31769;49.304;8.428;2024-03-07T14:57:04;13.20;97.30
46037;DHT22;31769;49.304;8.428;2024-03-07T15:00:05;13.00;97.50
46037;DHT22;31769;49.304;8.428;2024-03-07T15:03:17;12.80;98.10
46037;DHT22;31769;49.304;8.428;2024-03-07T15:06:19;12.70;98.70
46037;DHT22;31769;49.304;8.428;2024-03-07T15:09:21;12.60;99.00
46037;DHT22;31769;49.304;8.428;2024-03-07T15:12:23;12.40;99.20
46037;DHT22;31769;49.304;8.428;2024-03-07T15:15:24;12.30;99.70
46037;DHT22;31769;49.304;8.428;2024-03-07T15:18:31;12.20;99.90
46037;DHT22;31769;49.304;8.428;2024-03-07T15:21:32;12.20;99.90
46037;DHT22;31769;49.304;8.428;2024-03-07T15:24:32;12.20;99.90
46037;DHT22;31769;49.304;8.428;2024-03-07T15:27:36;12.20;99.90
46037;DHT22;31769;49.304;8.428;2024-03-07T15:30:39;12.20;99.90
46037;DHT22;31769;49.304;8.428;2024-03-07T15:33:42;12.10;99.90
46037;DHT22;31769;49.304;8.428;2024-03-07T15:36:44;12.00;99.90
46037;DHT22;31769;49.304;8.428;2024-03-07T15:39:45;11.80;99.90
46037;DHT22;31769;49.304;8.428;2024-03-07T15:42:49;11.70;99.90
46037;DHT22;31769;49.304;8.428;2024-03-07T15:45:54;11.60;99.90
46037;DHT22;31769;49.304;8.428;2024-03-07T15:48:57;11.50;99.90
46037;DHT22;31769;49.304;8.428;2024-03-07T15:51:59;11.50;99.90
46037;DHT22;31769;49.304;8.428;2024-03-07T15:55:00;11.50;99.90
46037;DHT22;31769;49.304;8.428;2024-03-07T15:58:02;11.40;99.90
46037;DHT22;31769;49.304;8.428;2024-03-07T16:01:06;11.30;99.90
46037;DHT22;31769;49.304;8.428;2024-03-07T16:04:07;11.30;99.90
46037;DHT22;31769;49.304;8.428;2024-03-07T16:07:08;11.20;99.90
46037;DHT22;31769;49.304;8.428;2024-03-07T16:10:09;11.20;99.90
46037;DHT22;31769;49.304;8.428;2024-03-07T16:13:11;11.20;99.90
46037;DHT22;31769;49.304;8.428;2024-03-07T16:16:15;11.10;99.90
46037;DHT22;31769;49.304;8.428;2024-03-07T16:19:16;11.10;99.90
46037;DHT22;31769;49.304;8.428;2024-03-07T16:22:20;11.10;99.90
46037;DHT22;31769;49.304;8.428;2024-03-07T16:25:20;11.10;99.90
46037;DHT22;31769;49.304;8.428;2024-03-07T16:28:21;11.10;99.90
46037;DHT22;31769;49.304;8.428;2024-03-07T16:31:27;11.10;99.90
46037;DHT22;31769;49.304;8.428;2024-03-07T16:34:28;11.00;99.90
46037;DHT22;31769;49.304;8.428;2024-03-07T16:37:29;11.00;99.90
46037;DHT22;31769;49.304;8.428;2024-03-07T16:40:30;10.90;99.90
46037;DHT22;31769;49.304;8.428;2024-03-07T16:43:31;10.80;99.90
46037;DHT22;31769;49.304;8.428;2024-03-07T16:46:34;10.80;99.90
46037;DHT22;31769;49.304;8.428;2024-03-07T16:49:40;10.70;99.90
46037;DHT22;31769;49.304;8.428;2024-03-07T16:52:41;10.70;99.90
46037;DHT22;31769;49.304;8.428;2024-03-07T16:55:42;10.50;99.90
46037;DHT22;31769;49.304;8.428;2024-03-07T16:58:42;10.40;99.90
46037;DHT22;31769;49.304;8.428;2024-03-07T17:01:43;10.30;99.90
46037;DHT22;31769;49.304;8.428;2024-03-07T17:04:46;10.30;99.90
46037;DHT22;31769;49.304;8.428;2024-03-07T17:07:48;10.30;99.90
46037;DHT22;31769;49.304;8.428;2024-03-07T17:10:49;10.30;99.90
46037;DHT22;31769;49.304;8.428;2024-03-07T17:13:51;10.30;99.90
46037;DHT22;31769;49.304;8.428;2024-03-07T17:16:53;10.30;99.90
46037;DHT22;31769;49.304;8.428;2024-03-07T17:19:54;10.20;99.90
46037;DHT22;31769;49.304;8.428;2024-03-07T17:22:55;10.20;99.90
46037;DHT22;31769;49.304;8.428;2024-03-07T17:25:58;10.10;99.90
46037;DHT22;31769;49.304;8.428;2024-03-07T17:28:58;10.10;99.90
46037;DHT22;31769;49.304;8.428;2024-03-07T17:31:59;10.00;99.90
46037;DHT22;31769;49.304;8.428;2024-03-07T17:35:03;10.00;99.90
46037;DHT22;31769;49.304;8.428;2024-03-07T17:38:04;9.90;99.90
46037;DHT22;31769;49.304;8.428;2024-03-07T17:41:05;9.90;99.90
46037;DHT22;31769;49.304;8.428;2024-03-07T17:44:07;9.90;99.90
46037;DHT22;31769;49.304;8.428;2024-03-07T17:47:17;9.90;99.90
46037;DHT22;31769;49.304;8.428;2024-03-07T17:53:22;9.80;99.90
46037;DHT22;31769;49.304;8.428;2024-03-07T17:56:26;9.80;99.90
46037;DHT22;31769;49.304;8.428;2024-03-07T17:59:27;9.80;99.90
46037;DHT22;31769;49.304;8.428;2024-03-07T18:02:27;9.80;99.90
46037;DHT22;31769;49.304;8.428;2024-03-07T18:05:29;9.80;99.90
46037;DHT22;31769;49.304;8.428;2024-03-07T18:08:30;9.80;99.90
46037;DHT22;31769;49.304;8.428;2024-03-07T18:11:34;9.80;99.90
46037;DHT22;31769;49.304;8.428;2024-03-07T18:14:35;9.80;99.90
46037;DHT22;31769;49.304;8.428;2024-03-07T18:17:40;9.80;99.90
46037;DHT22;31769;49.304;8.428;2024-03-07T18:20:41;9.80;99.90
46037;DHT22;31769;49.304;8.428;2024-03-07T18:23:42;9.70;99.90
46037;DHT22;31769;49.304;8.428;2024-03-07T18:26:43;9.70;99.90
46037;DHT22;31769;49.304;8.428;2024-03-07T18:29:48;9.70;99.90
46037;DHT22;31769;49.304;8.428;2024-03-07T18:32:48;9.70;99.90
46037;DHT22;31769;49.304;8.428;2024-03-07T18:35:49;9.70;99.90
46037;DHT22;31769;49.304;8.428;2024-03-07T18:38:50;9.60;99.90
46037;DHT22;31769;49.304;8.428;2024-03-07T18:41:51;9.60;99.90
46037;DHT22;31769;49.304;8.428;2024-03-07T18:44:52;9.60;99.90
46037;DHT22;31769;49.304;8.428;2024-03-07T18:47:54;9.60;99.90
46037;DHT22;31769;49.304;8.428;2024-03-07T18:50:54;9.60;99.90
46037;DHT22;31769;49.304;8.428;2024-03-07T18:53:55;9.50;99.90
46037;DHT22;31769;49.304;8.428;2024-03-07T18:56:56;9.50;99.90
46037;DHT22;31769;49.304;8.428;2024-03-07T18:59:56;9.50;99.90
46037;DHT22;31769;49.304;8.428;2024-03-07T19:02:57;9.50;99.90
46037;DHT22;31769;49.304;8.428;2024-03-07T19:05:59;9.50;99.90
46037;DHT22;31769;49.304;8.428;2024-03-07T19:09:02;9.40;99.90
46037;DHT22;31769;49.304;8.428;2024-03-07T19:12:03;9.50;99.90
46037;DHT22;31769;49.304;8.428;2024-03-07T19:15:04;9.40;99.90
46037;DHT22;31769;49.304;8.428;2024-03-07T19:18:05;9.40;99.90
46037;DHT22;31769;49.304;8.428;2024-03-07T19:21:13;9.40;99.90
46037;DHT22;31769;49.304;8.428;2024-03-07T19:24:13;9.30;99.90
46037;DHT22;31769;49.304;8.428;2024-03-07T19:27:14;9.30;99.90
46037;DHT22;31769;49.304;8.428;2024-03-07T19:30:16;9.20;99.90
46037;DHT22;31769;49.304;8.428;2024-03-07T19:33:17;9.20;99.90
46037;DHT22;31769;49.304;8.428;2024-03-07T19:36:18;9.20;99.90
46037;DHT22;31769;49.304;8.428;2024-03-07T19:39:19;9.20;99.90
46037;DHT22;31769;49.304;8.428;2024-03-07T19:42:20;9.20;99.90
46037;DHT22;31769;49.304;8.428;2024-03-07T19:45:21;9.20;99.90
46037;DHT22;31769;49.304;8.428;2024-03-07T19:48:23;9.20;99.90
46037;DHT22;31769;49.304;8.428;2024-03-07T19:51:27;9.20;99.90
46037;DHT22;31769;49.304;8.428;2024-03-07T19:54:27;9.20;99.90
46037;DHT22;31769;49.304;8.428;2024-03-07T19:57:28;9.20;99.90
46037;DHT22;31769;49.304;8.428;2024-03-07T20:00:29;9.20;99.90